M I D A S
Marine Information and Data Acquisition System
Tripno 760 of the Zeeleeuw from 2004-06-25 06:46:14 to 2004-06-25 15:04:37
Back to CruiseResearch ActivitiesStationsMapUnderway DataData graphs

EquipmentUnitsComment
TimeDGPSUTC
LatitudeDGPSDM.mWGS84
LongitudeDGPSDM.mWGS84
HeadingGyrodeg 
SOGDGPSknotsSpeed over ground
COGDGPSdegCourse over ground
DepthEcho soundermeters200 kHz
Missing or incorrect values are displayed as -999
Navigation data collected by the RV Zeeleeuw from 2004-06-25 06:46:14 to 2004-06-25 15:04:37
                                                                                    Next 1000 lines
Time Latitude Longitude Heading SOG COG Depth
2004-06-25 06:46:23 51°13.661 2°55.969 129.1 0.1 208 9.4
2004-06-25 06:46:28 51°13.661 2°55.969 128.3 0.1 202 9.4
2004-06-25 06:46:33 51°13.661 2°55.969 127.1 0.1 196 9.3
2004-06-25 06:46:37 51°13.66 2°55.969 126 0.1 189 9.6
2004-06-25 06:46:42 51°13.66 2°55.969 124.8 0.1 191 9.5
2004-06-25 06:46:48 51°13.66 2°55.969 124 0.1 182 9.4
2004-06-25 06:46:52 51°13.66 2°55.969 122.8 0.1 188 9.5
2004-06-25 06:46:58 51°13.66 2°55.969 121.6 0.1 190 9.5
2004-06-25 06:47:04 51°13.66 2°55.969 120.1 0.1 190 9.6
2004-06-25 06:47:08 51°13.659 2°55.969 118.5 0.1 204 9.6
2004-06-25 06:47:12 51°13.659 2°55.968 116.8 0.2 258 9.5
2004-06-25 06:47:18 51°13.66 2°55.967 115.3 0.5 282 9.4
2004-06-25 06:47:24 51°13.661 2°55.964 114.5 0.9 281 9.3
2004-06-25 06:47:28 51°13.662 2°55.962 113.9 1.3 284 9.3
2004-06-25 06:47:33 51°13.663 2°55.958 114.2 1.9 286 9.4
2004-06-25 06:47:38 51°13.664 2°55.953 114.7 2.1 290 -999
2004-06-25 06:47:44 51°13.666 2°55.947 115.7 2.3 289 -999
2004-06-25 06:47:49 51°13.667 2°55.942 116.4 2.7 293 -999
2004-06-25 06:47:54 51°13.669 2°55.936 116.6 2.8 291 -999
2004-06-25 06:47:58 51°13.67 2°55.931 116.6 3 292 -999
2004-06-25 06:48:04 51°13.672 2°55.923 116.1 3.1 292 -999
2004-06-25 06:48:09 51°13.674 2°55.916 115.7 3.4 293 -999
2004-06-25 06:48:14 51°13.675 2°55.909 115.3 3.5 291 -999
2004-06-25 06:48:18 51°13.677 2°55.903 114.9 3.7 292 -999
2004-06-25 06:48:24 51°13.679 2°55.893 114.6 3.8 291 -999
2004-06-25 06:48:29 51°13.681 2°55.885 113.8 4 291 -999
2004-06-25 06:48:34 51°13.683 2°55.876 113.1 4.1 289 -999
2004-06-25 06:48:38 51°13.685 2°55.869 112 4.2 289 -999
2004-06-25 06:48:44 51°13.687 2°55.858 110.5 4.3 288 -999
2004-06-25 06:48:49 51°13.689 2°55.849 109.5 4.4 286 -999
2004-06-25 06:48:54 51°13.69 2°55.839 108.6 4.5 285 -999
2004-06-25 06:48:58 51°13.692 2°55.831 107.4 4.6 285 -999
2004-06-25 06:49:04 51°13.693 2°55.819 106.5 4.6 283 -999
2004-06-25 06:49:09 51°13.695 2°55.809 105.5 4.7 282 -999
2004-06-25 06:49:14 51°13.696 2°55.799 104.5 4.7 281 -999
2004-06-25 06:49:18 51°13.697 2°55.791 103.7 4.6 282 -999
2004-06-25 06:49:24 51°13.698 2°55.78 103.2 4.4 280 -999
2004-06-25 06:49:29 51°13.699 2°55.772 103 3.6 280 -999
2004-06-25 06:49:34 51°13.7 2°55.766 102.3 2.9 278 -999
2004-06-25 06:49:38 51°13.7 2°55.763 100.4 2 279 -999
2004-06-25 06:49:44 51°13.7 2°55.761 96.6 1.2 283 -999
2004-06-25 06:49:49 51°13.7 2°55.761 91.7 0.3 5 16.5
2004-06-25 06:49:53 51°13.701 2°55.762 85.6 0.7 53 16.4
2004-06-25 06:49:57 51°13.702 2°55.764 79.8 1.2 60 16.7
2004-06-25 06:50:02 51°13.703 2°55.767 71.8 1.4 57 17
2004-06-25 06:50:08 51°13.704 2°55.769 66.1 1.2 51 16.9
2004-06-25 06:50:13 51°13.705 2°55.77 61.5 0.6 52 15.9
2004-06-25 06:50:18 51°13.705 2°55.77 58.4 0.1 16 15.7
2004-06-25 06:50:23 51°13.704 2°55.769 55.8 0.6 226 15.9
2004-06-25 06:50:28 51°13.703 2°55.767 54.4 1.1 228 16.7
2004-06-25 06:50:32 51°13.702 2°55.765 52.6 1.5 225 16.9
2004-06-25 06:50:38 51°13.699 2°55.762 51.5 1.8 225 16.6
2004-06-25 06:50:42 51°13.698 2°55.759 50.5 1.9 225 -999
2004-06-25 06:50:49 51°13.695 2°55.756 50 1.6 226 -999
2004-06-25 06:50:54 51°13.695 2°55.754 49.9 1.1 225 -999
2004-06-25 06:50:58 51°13.694 2°55.754 48.7   195 -999
2004-06-25 06:51:04 51°13.695 2°55.755 44.8 0.9 30 -999
2004-06-25 06:51:09 51°13.696 2°55.755 38.8 1.4 28 -999
2004-06-25 06:51:14 51°13.698 2°55.757 29.8 2 20 -999
2004-06-25 06:51:18 51°13.701 2°55.758 23.3 2.6 13 -999
2004-06-25 06:51:24 51°13.706 2°55.758 14.8 3.3 2 -999
2004-06-25 06:51:29 51°13.711 2°55.757 5.4 3.9 350 -999
2004-06-25 06:51:34 51°13.717 2°55.754 353.7 4.3 344 -999
2004-06-25 06:51:38 51°13.722 2°55.75 345.5 3.7 338 14.3
2004-06-25 06:51:44 51°13.728 2°55.743 337.5 4.1 330 13
2004-06-25 06:51:48 51°13.732 2°55.738 331.7 4.7 327 12.2
2004-06-25 06:51:53 51°13.738 2°55.732 328.2 4.9 325 11.7
2004-06-25 06:51:58 51°13.743 2°55.726 327.4 5.1 326 11.5
2004-06-25 06:52:02 51°13.749 2°55.721 328.4 5.3 327 11
2004-06-25 06:52:08 51°13.756 2°55.713 329 5.5 327 11.1
2004-06-25 06:52:12 51°13.762 2°55.707 329.5 5.8 326 11.3
2004-06-25 06:52:18 51°13.77 2°55.699 329.6 6 326 12.1
2004-06-25 06:52:23 51°13.777 2°55.691 329.5 6.2 325 11.5
2004-06-25 06:52:28 51°13.784 2°55.683 328.7 6.3 325 11.7
2004-06-25 06:52:33 51°13.792 2°55.675 329.3 6.6 325 11.2
2004-06-25 06:52:38 51°13.8 2°55.667 330.9 6.8 327 11.6
2004-06-25 06:52:43 51°13.808 2°55.658 332.3 7 327 11.5
2004-06-25 06:52:48 51°13.817 2°55.65 332.6 7.3 329 11.9
2004-06-25 06:52:53 51°13.826 2°55.641 333.8 7.4 330 12.3
2004-06-25 06:52:58 51°13.835 2°55.633 335.1 7.5 332 12
2004-06-25 06:53:02 51°13.842 2°55.627 336.8 7.6 333 11.8
2004-06-25 06:53:08 51°13.853 2°55.617 338.2 7.7 334 11.4
2004-06-25 06:53:13 51°13.863 2°55.61 340 7.8 335 11.4
2004-06-25 06:53:18 51°13.873 2°55.603 340.2 7.9 335 11.9
2004-06-25 06:53:22 51°13.882 2°55.598 340.6 8 336 11.6
2004-06-25 06:53:28 51°13.894 2°55.589 341.1 8.1 336 11.7
2004-06-25 06:53:32 51°13.902 2°55.584 341.8 8.1 337 11.5
2004-06-25 06:53:38 51°13.915 2°55.575 342.1 8.1 337 11.6
2004-06-25 06:53:43 51°13.925 2°55.568 341.2 8.2 336 11.9
2004-06-25 06:53:48 51°13.935 2°55.56 340.9 8.2 336 11.8
2004-06-25 06:53:53 51°13.946 2°55.553 340.6 8.2 336 12.6
2004-06-25 06:53:56 51°13.952 2°55.548 340.6 8.3 336 13
2004-06-25 06:54:04 51°13.969 2°55.536 340.5 8.3 335 13.3
2004-06-25 06:54:08 51°13.978 2°55.53 340.8 8.4 335 14
2004-06-25 06:54:13 51°13.989 2°55.523 340.8 8.5 336 14.2
2004-06-25 06:54:18 51°14 2°55.515 341.2 8.6 336 14.4
2004-06-25 06:54:21 51°14.006 2°55.51 341.4 8.7 336 13.4
2004-06-25 06:54:28 51°14.022 2°55.499 341.6 8.8 337 13.2
2004-06-25 06:54:32 51°14.031 2°55.493 341.7 8.8 337 13.2
2004-06-25 06:54:38 51°14.044 2°55.484 342.4 8.8 337 13.3
2004-06-25 06:54:43 51°14.055 2°55.476 342.8 8.9 338 13.5
2004-06-25 06:54:48 51°14.067 2°55.468 342.5 8.9 338 13.4
2004-06-25 06:54:53 51°14.078 2°55.46 341.9 8.9 336 13.4
2004-06-25 06:54:58 51°14.089 2°55.453 341.4 8.9 337 13.2
2004-06-25 06:55:04 51°14.103 2°55.443 341.8 9 337 13.5
2004-06-25 06:55:08 51°14.112 2°55.437 341.7 9 336 13.8
2004-06-25 06:55:18 51°14.135 2°55.42 340.2 9 335 14
2004-06-25 06:55:23 51°14.146 2°55.411 339.5 9.2 334 14
2004-06-25 06:55:28 51°14.158 2°55.401 338.9 9.5 332 14
2004-06-25 06:55:32 51°14.167 2°55.393 336.7 9.6 330 14
2004-06-25 06:55:37 51°14.178 2°55.381 334.8 9.7 328 13.9
2004-06-25 06:55:43 51°14.192 2°55.366 333.2 9.8 327 14
2004-06-25 06:55:48 51°14.203 2°55.353 331.4 10.1 323 14
2004-06-25 06:55:53 51°14.214 2°55.338 328.7 10.1 321 14.1
2004-06-25 06:55:58 51°14.224 2°55.323 325.7 10.2 318 14.2
2004-06-25 06:56:03 51°14.235 2°55.309 324.1 10.2 318 13.8
2004-06-25 06:56:08 51°14.245 2°55.293 323.4 10.3 315 13.7
2004-06-25 06:56:18 51°14.265 2°55.259 319.3 10.4 312 13.6
2004-06-25 06:56:24 51°14.276 2°55.238 318.1 10.4 311 13.6
2004-06-25 06:56:28 51°14.283 2°55.224 317.1 10.4 309 13.4
2004-06-25 06:56:33 51°14.292 2°55.205 315 10.4 308 13.1
2004-06-25 06:56:37 51°14.299 2°55.191 314.1 10.4 308 13.1
2004-06-25 06:56:43 51°14.31 2°55.169 314.2 10.4 309 13.2
2004-06-25 06:56:48 51°14.319 2°55.151 314.2 10.5 309 13.4
2004-06-25 06:56:53 51°14.328 2°55.133 314.6 10.4 310 12.9
2004-06-25 06:56:58 51°14.338 2°55.116 315.3 10.4 310 13.3
2004-06-25 06:57:02 51°14.346 2°55.102 316 10.6 312 13
2004-06-25 06:57:08 51°14.358 2°55.081 317.2 10.6 312 12.6
2004-06-25 06:57:13 51°14.368 2°55.064 318 10.8 315 13
2004-06-25 06:57:17 51°14.377 2°55.05 319.3 11 315 13.3
2004-06-25 06:57:22 51°14.388 2°55.035 321.2 11 318 13.3
2004-06-25 06:57:28 51°14.403 2°55.018 324.5 11 325 13
2004-06-25 06:57:32 51°14.414 2°55.007 328.1 11 325 12.7
2004-06-25 06:57:38 51°14.43 2°54.994 332.4 11.3 333 12.8
2004-06-25 06:57:44 51°14.448 2°54.982 336.7 11.3 337 12.8
2004-06-25 06:57:48 51°14.46 2°54.976 340.3 11.4 341 12.2
2004-06-25 06:57:52 51°14.472 2°54.969 341.8 11.5 341 11.8
2004-06-25 06:57:58 51°14.49 2°54.96 343.1 11.6 341 12.2
2004-06-25 06:58:04 51°14.508 2°54.951 343.3 11.7 343 12.1
2004-06-25 06:58:08 51°14.521 2°54.945 343.4 11.5 342 11.6
2004-06-25 06:58:12 51°14.533 2°54.939 344.2 11.7 343 11.4
2004-06-25 06:58:18 51°14.552 2°54.928 343.5 11.7 341 11.8
2004-06-25 06:58:23 51°14.567 2°54.92 342.5 11.5 340 11.7
2004-06-25 06:58:28 51°14.582 2°54.911 341.4 11.6 340 11.4
2004-06-25 06:58:32 51°14.593 2°54.903 340.4 11.3 337 11.5
2004-06-25 06:58:38 51°14.61 2°54.89 338.5 11.4 336 11.1
2004-06-25 06:58:43 51°14.625 2°54.879 335.7 11.5 334 11.5
2004-06-25 06:58:48 51°14.639 2°54.866 334 11.6 332 11.6
2004-06-25 06:58:50 51°14.645 2°54.861 332.4 11.5 332 11.7
2004-06-25 06:58:58 51°14.667 2°54.843 333 11.4 334 11.3
2004-06-25 06:59:03 51°14.682 2°54.833 335 11.4 335 11.6
2004-06-25 06:59:08 51°14.697 2°54.824 337.5 11.5 340 11.8
2004-06-25 06:59:12 51°14.709 2°54.817 340.2 11.7 342 11.5
2004-06-25 06:59:17 51°14.725 2°54.81 343.1 12 345 11.5
2004-06-25 06:59:23 51°14.744 2°54.804 346.2 11.6 348 11.1
2004-06-25 06:59:28 51°14.76 2°54.799 348.6 11.9 346 11.2
2004-06-25 06:59:33 51°14.776 2°54.792 348.2 12 345 11.5
2004-06-25 06:59:38 51°14.792 2°54.785 346.2 11.9 344 11.3
2004-06-25 06:59:43 51°14.808 2°54.778 345.4 12.1 345 11.1
2004-06-25 06:59:48 51°14.824 2°54.77 345.6 12.2 343 11.4
2004-06-25 06:59:53 51°14.841 2°54.762 344.8 12.3 343 11.4
2004-06-25 06:59:58 51°14.857 2°54.754 343.9 12.1 343 11.1
2004-06-25 07:00:03 51°14.873 2°54.746 343.2 11.9 343 11.6
2004-06-25 07:00:08 51°14.889 2°54.738 343.3 11.7 342 -999
2004-06-25 07:00:13 51°14.904 2°54.73 344 11.8 343 11.5
2004-06-25 07:00:18 51°14.92 2°54.723 344.1 11.7 344 10.9
2004-06-25 07:00:23 51°14.936 2°54.716 344.7 11.8 345 11.3
2004-06-25 07:00:28 51°14.952 2°54.708 344.9 12 343 11.2
2004-06-25 07:00:33 51°14.968 2°54.701 344.6 12 344 10.7
2004-06-25 07:00:37 51°14.981 2°54.695 345.2 12 344 10.9
2004-06-25 07:00:41 51°14.993 2°54.689 344.8 11.9 343 10.9
2004-06-25 07:00:48 51°15.016 2°54.678 344.2 11.8 344 10.7
2004-06-25 07:00:53 51°15.032 2°54.67 344.9 11.8 343 10.3
2004-06-25 07:01:00 51°15.054 2°54.66 345.5 12 345 10.3
2004-06-25 07:01:07 51°15.076 2°54.65 346.5 12 345 10.2
2004-06-25 07:01:13 51°15.096 2°54.642 346.9 12.1 344 10.5
2004-06-25 07:01:17 51°15.109 2°54.636 347 12.3 346 10.5
2004-06-25 07:01:21 51°15.122 2°54.63 347.5 12.4 344 10.5
2004-06-25 07:01:26 51°15.139 2°54.624 347.2 12.3 346 11.5
2004-06-25 07:01:32 51°15.158 2°54.616 346.9 11.9 347 -999
2004-06-25 07:01:37 51°15.174 2°54.61 348.6 12 345 10.2
2004-06-25 07:01:40 51°15.184 2°54.606 347.9 12.2 344 10.6
2004-06-25 07:01:46 51°15.204 2°54.597 347.6 12.3 345 10.4
2004-06-25 07:01:50 51°15.217 2°54.592 347.9 12.1 347 10.7
2004-06-25 07:01:57 51°15.24 2°54.582 348.1 12.2 344 10.6
2004-06-25 07:02:00 51°15.25 2°54.578 347.7 12.4 346 10.8
2004-06-25 07:02:06 51°15.27 2°54.57 347.5 12 346 -999
2004-06-25 07:02:12 51°15.289 2°54.563 347.4 12 347 10.8
2004-06-25 07:02:17 51°15.305 2°54.556 348.3 12.2 345 10.8
2004-06-25 07:02:21 51°15.318 2°54.551 347.6 12.3 346 11.2
2004-06-25 07:02:28 51°15.341 2°54.543 348.3 11.9 346 11
2004-06-25 07:02:32 51°15.354 2°54.538 348.1 12.1 348 10.9
2004-06-25 07:02:37 51°15.37 2°54.53 349 12.1 344 11.2
2004-06-25 07:02:41 51°15.384 2°54.525 348 12.2 347 11
2004-06-25 07:02:47 51°15.404 2°54.517 348.5 12.3 346 11.4
2004-06-25 07:02:52 51°15.42 2°54.511 348.1 12.2 346 11.1
2004-06-25 07:02:54 51°15.427 2°54.509 348.1 12.3 346 11.4
2004-06-25 07:03:00 51°15.447 2°54.5 348 12.4 344 11.4
2004-06-25 07:03:06 51°15.467 2°54.492 347.7 12.5 346 11.3
2004-06-25 07:03:12 51°15.486 2°54.483 348.3 12.5 344 11.4
2004-06-25 07:03:17 51°15.504 2°54.477 348.4 12.6 346 11.5
2004-06-25 07:03:22 51°15.52 2°54.469 348 12.6 344 11.7
2004-06-25 07:03:27 51°15.537 2°54.462 347.7 12.6 346 11.6
2004-06-25 07:03:33 51°15.557 2°54.453 347.5 12.4 346 11.6
2004-06-25 07:03:36 51°15.567 2°54.449 347.9 12.3 345 11.4
2004-06-25 07:03:42 51°15.586 2°54.44 347.6 12.3 344 11.5
2004-06-25 07:03:45 51°15.597 2°54.436 348 12.5 346 11.6
2004-06-25 07:03:52 51°15.619 2°54.426 347.5 12.3 347 11.3
2004-06-25 07:03:57 51°15.636 2°54.418 348.7 12.1 344 11.6
2004-06-25 07:04:01 51°15.649 2°54.414 348.4 12.2 346 12
2004-06-25 07:04:06 51°15.665 2°54.407 348.4 12.3 346 11.7
2004-06-25 07:04:12 51°15.685 2°54.398 348.2 12.3 345 12
2004-06-25 07:04:17 51°15.701 2°54.391 348.5 12.3 344 12.4
2004-06-25 07:04:22 51°15.717 2°54.385 347.9 12.2 346 -999
2004-06-25 07:04:26 51°15.731 2°54.38 348.7 12.4 347 12.4
2004-06-25 07:04:32 51°15.751 2°54.372 349.9 12 345 12.6
2004-06-25 07:04:36 51°15.764 2°54.367 348.1 12 346 12.2
2004-06-25 07:04:41 51°15.78 2°54.36 348.8 12.2 346 12.4
2004-06-25 07:04:47 51°15.8 2°54.352 348.7 12.3 345 12.6
2004-06-25 07:04:52 51°15.816 2°54.345 348.2 12.3 345 12.6
2004-06-25 07:04:56 51°15.83 2°54.339 348.4 12.3 343 12.6
2004-06-25 07:05:02 51°15.849 2°54.333 347.9 12.1 349 12.5
2004-06-25 07:05:08 51°15.868 2°54.324 348.8 12 345 12.4
2004-06-25 07:05:10 51°15.875 2°54.322 349.2 11.7 346 -999
2004-06-25 07:05:21 51°15.91 2°54.309 349.6 11.9 346 12.8
2004-06-25 07:05:28 51°15.933 2°54.3 348.8 12 345 13.1
2004-06-25 07:05:30 51°15.939 2°54.297 348.9 12.1 347 13
2004-06-25 07:05:37 51°15.962 2°54.288 348.7 12.3 347 12.9
2004-06-25 07:05:42 51°15.979 2°54.282 349.2 12.5 346 13.2
2004-06-25 07:05:47 51°15.996 2°54.276 348.1 12.4 347 12.9
2004-06-25 07:05:52 51°16.012 2°54.269 349 12.3 345 13
2004-06-25 07:05:57 51°16.029 2°54.263 348.9 12.4 348 13.2
2004-06-25 07:06:02 51°16.046 2°54.257 349.8 12.6 348 13.5
2004-06-25 07:06:06 51°16.06 2°54.253 350.6 12.7 350 13.6
2004-06-25 07:06:11 51°16.077 2°54.249 351.8 12.4 352 13.3
2004-06-25 07:06:17 51°16.097 2°54.245 354.6 12.3 353 13.4
2004-06-25 07:06:19 51°16.104 2°54.244 355.6 11.6 354 13.3
2004-06-25 07:06:26 51°16.126 2°54.242 357.6 11.3 355 13.3
2004-06-25 07:06:32 51°16.143 2°54.24   10.6 358 13.5
2004-06-25 07:06:36 51°16.153 2°54.241   9.4 1 13.8
2004-06-25 07:06:42 51°16.168 2°54.241 0.3 8.9 1 13.5
2004-06-25 07:06:46 51°16.177 2°54.242 2.2 8.1 3 13.5
2004-06-25 07:06:52 51°16.19 2°54.243 3.6 7.5 5 13.5
2004-06-25 07:06:57 51°16.199 2°54.245 4.6 7 7 13.8
2004-06-25 07:07:02 51°16.208 2°54.248 6.5 6.4 9 13.7
2004-06-25 07:07:05 51°16.213 2°54.25 8.2 6.1 11 13.6
2004-06-25 07:07:11 51°16.222 2°54.254 11.1 5.9 17 13.7
2004-06-25 07:07:17 51°16.231 2°54.259 13 5.6 20 13.9
2004-06-25 07:07:22 51°16.237 2°54.263 16.5 5.4 25 13.6
2004-06-25 07:07:26 51°16.242 2°54.267 21 5.1 26 13.5
2004-06-25 07:07:32 51°16.249 2°54.274 26.5 4.9 29 13.3
2004-06-25 07:07:37 51°16.255 2°54.279 30.8 4.6 31 13.2
2004-06-25 07:07:42 51°16.259 2°54.286 34.5 4.3 41 13.5
2004-06-25 07:07:47 51°16.263 2°54.291 35.9 3.9 35 13.7
2004-06-25 07:07:52 51°16.267 2°54.296 36.2 3.9 43 13.8
2004-06-25 07:07:57 51°16.27 2°54.302 36.7 3.2 47 14
2004-06-25 07:08:02 51°16.273 2°54.306 37.5 3 47 14
2004-06-25 07:08:07 51°16.275 2°54.311 39.1 2.6 53 13.9
2004-06-25 07:08:12 51°16.277 2°54.314 41.2 2.2 52 13.9
2004-06-25 07:08:17 51°16.278 2°54.318 42.1 2 63 13.8
2004-06-25 07:08:22 51°16.28 2°54.321 42.8 1.6 50 13.6
2004-06-25 07:08:27 51°16.281 2°54.323 43.1 1.6 64 13.7
2004-06-25 07:08:32 51°16.281 2°54.327 43.5 1.4 56 13.7
2004-06-25 07:08:37 51°16.282 2°54.329 43.4 1.4 65 13.7
2004-06-25 07:08:41 51°16.283 2°54.332 43.6 1.4 70 13.7
2004-06-25 07:08:47 51°16.284 2°54.336 44.6 1.7 72 13.7
2004-06-25 07:08:52 51°16.284 2°54.34 45.7 1.7 75 13.7
2004-06-25 07:08:57 51°16.285 2°54.343 46.1 1.8 69 13.6
2004-06-25 07:09:02 51°16.287 2°54.345 44.9 1.5 54 13.8
2004-06-25 07:09:06 51°16.286 2°54.35 44.2 1.9 81 13.8
2004-06-25 07:09:10 51°16.287 2°54.352 44 1.6 73 13.4
2004-06-25 07:09:16 51°16.288 2°54.357 44.8 1.6 76 13.2
2004-06-25 07:09:21 51°16.289 2°54.359 45.9 1.7 65 13.3
2004-06-25 07:09:26 51°16.29 2°54.362 44.1 1.5 64 13.3
2004-06-25 07:09:32 51°16.291 2°54.366 42.2 1.4 62 13.4
2004-06-25 07:09:37 51°16.291 2°54.371 42.8 1.9 81 13.6
2004-06-25 07:09:40 51°16.292 2°54.372 41.3 1.4 43 13.6
2004-06-25 07:09:47 51°16.293 2°54.378 40.2 1.8 76 13.8
2004-06-25 07:09:52 51°16.294 2°54.38 40.1 1.5 56 13.8
2004-06-25 07:09:55 51°16.294 2°54.383 39.1 1.8 74 14
2004-06-25 07:10:02 51°16.296 2°54.387 39.1 1.4 51 14
2004-06-25 07:10:07 51°16.296 2°54.39 37.8 1.6 62 13.9
2004-06-25 07:10:10 51°16.297 2°54.392 36.9 1.6 65 13.9
2004-06-25 07:10:17 51°16.298 2°54.396 36 1.5 63 13.6
2004-06-25 07:10:22 51°16.299 2°54.4 36.5 1.7 69 13.6
2004-06-25 07:10:27 51°16.3 2°54.404 36.2 2 76 13.7
2004-06-25 07:10:32 51°16.301 2°54.408 35.5 1.9 67 13.5
2004-06-25 07:10:37 51°16.302 2°54.411 35.4 1.9 59 13.2
2004-06-25 07:10:42 51°16.304 2°54.414 35.5 2 49 13.2
2004-06-25 07:10:46 51°16.305 2°54.418 35.5 2.2 56 13.4
2004-06-25 07:10:50 51°16.307 2°54.42 35.5 2.2 50 13.6
2004-06-25 07:10:57 51°16.31 2°54.426 35.3 2.4 54 13.8
2004-06-25 07:11:02 51°16.312 2°54.43 35.2 2.4 48 13.7
2004-06-25 07:11:07 51°16.314 2°54.433 34.1 2.4 42 13.5
2004-06-25 07:11:12 51°16.317 2°54.438 33.8 2.5 40 13.6
2004-06-25 07:11:17 51°16.319 2°54.443 34.8 2.9 48 13.4
2004-06-25 07:11:22 51°16.322 2°54.447 34.8 2.8 41 13.3
2004-06-25 07:11:26 51°16.325 2°54.45 34.7 3 37 13.4
2004-06-25 07:11:32 51°16.329 2°54.456 34.8 3.1 46 13.6
2004-06-25 07:11:37 51°16.332 2°54.461 34 3.3 44 13.5
2004-06-25 07:11:42 51°16.335 2°54.466 34.6 3.2 45 13.4
2004-06-25 07:11:47 51°16.338 2°54.471 35.9 3.2 46 13.5
2004-06-25 07:11:50 51°16.341 2°54.474 36.6 3.4 42 13.4
2004-06-25 07:11:57 51°16.345 2°54.481 37.6 3.3 44 13.3
2004-06-25 07:12:02 51°16.348 2°54.486 37.8 3.3 41 13.2
2004-06-25 07:12:07 51°16.352 2°54.491 38.4 3.2 43 12.8
2004-06-25 07:12:12 51°16.355 2°54.497 39.1 3.2 47 12.5
2004-06-25 07:12:16 51°16.357 2°54.501 40.1 3.1 42 12.6
2004-06-25 07:12:22 51°16.36 2°54.508 40.7 3.2 55 13.1
2004-06-25 07:12:27 51°16.363 2°54.513 41.3 3 48 13
2004-06-25 07:12:32 51°16.366 2°54.518 42.7 3 47 12.8
2004-06-25 07:12:37 51°16.368 2°54.523 44.2 3 47 12.6
2004-06-25 07:12:41 51°16.371 2°54.527 45.2 3.1 51 12.8
2004-06-25 07:12:46 51°16.373 2°54.532 44.6 2.9 50 12.9
2004-06-25 07:12:52 51°16.377 2°54.539 45 3.1 52 12.9
2004-06-25 07:12:57 51°16.379 2°54.545 46.4 3.2 62 13.1
2004-06-25 07:13:02 51°16.382 2°54.549 47 2.9 43 13
2004-06-25 07:13:07 51°16.384 2°54.554 47.1 2.8 40 12.8
2004-06-25 07:13:12 51°16.386 2°54.561 48.7 3.5 65 12.6
2004-06-25 07:13:17 51°16.389 2°54.566 48.6 3.2 48 12.3
2004-06-25 07:13:20 51°16.39 2°54.569 47.2 3.1 57 12.2
2004-06-25 07:13:26 51°16.394 2°54.575 47.6 2.9 41 12.6
2004-06-25 07:13:31 51°16.396 2°54.58 46.9 3.2 61 12.9
2004-06-25 07:13:37 51°16.399 2°54.588 46.9 3.2 59 13.1
2004-06-25 07:13:42 51°16.402 2°54.592 47.4 3 46 13.1
2004-06-25 07:13:46 51°16.404 2°54.596 48.4 3 52 12.9
2004-06-25 07:13:52 51°16.408 2°54.602 49.4 3.2 57 13.1
2004-06-25 07:13:57 51°16.41 2°54.609 50 3.1 59 12.9
2004-06-25 07:14:02 51°16.413 2°54.614 51 3 46 12.7
2004-06-25 07:14:07 51°16.415 2°54.619 52.4 3.2 63 12.9
2004-06-25 07:14:12 51°16.417 2°54.626 53 3.1 47 12.7
2004-06-25 07:14:17 51°16.42 2°54.63 54.4 3 52 12.3
2004-06-25 07:14:22 51°16.423 2°54.636 57.3 3.1 59 12.2
2004-06-25 07:14:27 51°16.425 2°54.643 58.7 3.1 63 12.4
2004-06-25 07:14:32 51°16.427 2°54.648 59.5 3.1 54 12.4
2004-06-25 07:14:37 51°16.429 2°54.654 59.5 3.1 60 12.7
2004-06-25 07:14:41 51°16.431 2°54.659 60.9 3.2 60 12.8
2004-06-25 07:14:46 51°16.433 2°54.665 60.9 3.1 57 12.7
2004-06-25 07:14:52 51°16.435 2°54.672 61.3 3.2 63 12.7
2004-06-25 07:14:57 51°16.438 2°54.678 62 3.1 58 12.9
2004-06-25 07:15:01 51°16.439 2°54.683 62.5 3.3 67 13
2004-06-25 07:15:07 51°16.442 2°54.69 63 3.1 54 12.9
2004-06-25 07:15:12 51°16.444 2°54.696 62.2 3.2 57 12.7
2004-06-25 07:15:16 51°16.445 2°54.701 62 3.1 65 12.4
2004-06-25 07:15:22 51°16.448 2°54.708 63 3 61 12.4
2004-06-25 07:15:27 51°16.449 2°54.714 64.2 3.1 64 12.4
2004-06-25 07:15:32 51°16.452 2°54.721 63.5 3.1 60 12.4
2004-06-25 07:15:37 51°16.454 2°54.726 63.8 3.1 57 12.2
2004-06-25 07:15:41 51°16.455 2°54.732 64.1 3.2 70 12.5
2004-06-25 07:15:46 51°16.457 2°54.737 63.3 3 56 12.7
2004-06-25 07:15:52 51°16.459 2°54.745 63.2 3.1 65 12.4
2004-06-25 07:15:57 51°16.461 2°54.751 63.6 3.1 62 12.4
2004-06-25 07:16:01 51°16.463 2°54.756 63.2 3.1 62 12.4
2004-06-25 07:16:06 51°16.464 2°54.762 62.8 3.1 63 12.3
2004-06-25 07:16:12 51°16.467 2°54.769 62.4 3.1 62 12.7
2004-06-25 07:16:17 51°16.469 2°54.776 62.9 3.1 65 12.7
2004-06-25 07:16:22 51°16.471 2°54.781 63.1 3.1 60 12.8
2004-06-25 07:16:27 51°16.473 2°54.787 62.4 3.1 58 12.7
2004-06-25 07:16:32 51°16.475 2°54.794 62.1 3.2 67 12.6
2004-06-25 07:16:37 51°16.477 2°54.799 62.2 3.2 59 12.6
2004-06-25 07:16:41 51°16.478 2°54.804 61.5 3 61 12.7
2004-06-25 07:16:46 51°16.481 2°54.81 61.2 3 61 12.8
2004-06-25 07:16:52 51°16.483 2°54.817 61 3.1 67 12.8
2004-06-25 07:16:57 51°16.485 2°54.823 60.4 3 59 12.7
2004-06-25 07:17:01 51°16.487 2°54.828 59.6 3 63 12.5
2004-06-25 07:17:07 51°16.489 2°54.835 61 3 61 12.5
2004-06-25 07:17:12 51°16.491 2°54.84 60.4 3 60 12.5
2004-06-25 07:17:17 51°16.494 2°54.846 59.5 2.9 57 12.5
2004-06-25 07:17:22 51°16.496 2°54.852 59.3 3.1 65 12.9
2004-06-25 07:17:26 51°16.497 2°54.857 59.8 3.2 68 13
2004-06-25 07:17:32 51°16.5 2°54.863 59.7 3.1 54 13
2004-06-25 07:17:37 51°16.502 2°54.869 58.7 3.1 60 13
2004-06-25 07:17:42 51°16.504 2°54.875 58.3 3.1 56 13
2004-06-25 07:17:47 51°16.506 2°54.881 58.3 3.1 62 13
2004-06-25 07:17:52 51°16.509 2°54.887 58.1 2.9 63 13.2
2004-06-25 07:17:56 51°16.51 2°54.891 58 3.1 62 13
2004-06-25 07:18:02 51°16.513 2°54.897 58 3 53 13
2004-06-25 07:18:07 51°16.514 2°54.904 57.5 3.1 71 13.1
2004-06-25 07:18:12 51°16.517 2°54.909 57.9 2.8 47 12.7
2004-06-25 07:18:17 51°16.519 2°54.914 57.4 2.8 48 12.9
2004-06-25 07:18:20 51°16.52 2°54.919 58.4 3.2 70 12.9
2004-06-25 07:18:26 51°16.523 2°54.925 57.4 3 51 12.6
2004-06-25 07:18:32 51°16.525 2°54.932 56.5 3 59 12.6
2004-06-25 07:18:37 51°16.527 2°54.938 57.2 3.1 60 12.8
2004-06-25 07:18:42 51°16.53 2°54.944 57.6 3.1 57 13
2004-06-25 07:18:45 51°16.531 2°54.947 57.2 3 60 13.2
2004-06-25 07:18:52 51°16.534 2°54.955 57.2 3 52 13.1
2004-06-25 07:18:57 51°16.536 2°54.96 57.5 3 48 13.1
2004-06-25 07:19:02 51°16.538 2°54.967 58.1 3.2 71 13.1
2004-06-25 07:19:06 51°16.54 2°54.971 57.6 2.9 53 13
2004-06-25 07:19:12 51°16.542 2°54.979 57.9 3 61 12.9
2004-06-25 07:19:17 51°16.544 2°54.984 58 3.1 62 12.8
2004-06-25 07:19:21 51°16.545 2°54.989 58 2.9 67 12.9
2004-06-25 07:19:26 51°16.548 2°54.994 58 2.9 63 12.9
2004-06-25 07:19:38 51°16.552 2°55.008 57.8 2.9 63 13.3
2004-06-25 07:19:41 51°16.554 2°55.011 57.6 2.8 58 13.2
2004-06-25 07:19:48 51°16.556 2°55.019 57.4 2.9 60 13.2
2004-06-25 07:19:53 51°16.558 2°55.024 57.5 2.8 64 13.2
2004-06-25 07:19:58 51°16.561 2°55.029 57.6 2.8 54 13.3
2004-06-25 07:20:04 51°16.563 2°55.036 58.4 2.9 63 13
2004-06-25 07:20:08 51°16.564 2°55.041 58.3 2.8 58 12.9
2004-06-25 07:20:12 51°16.566 2°55.045 57.3 2.9 64 12.9
2004-06-25 07:20:17 51°16.568 2°55.05 57.3 2.9 57 13
2004-06-25 07:20:22 51°16.57 2°55.056 56.8 2.9 63 13.1
2004-06-25 07:20:28 51°16.572 2°55.063 56.9 2.8 55 13.2
2004-06-25 07:20:33 51°16.575 2°55.068 56.6 2.8 52 13.2
2004-06-25 07:20:38 51°16.577 2°55.074 55.8 3 68 13.4
2004-06-25 07:20:42 51°16.578 2°55.078 56 3 70 13.3
2004-06-25 07:20:48 51°16.581 2°55.084 55.7 2.8 58 12.9
2004-06-25 07:20:53 51°16.583 2°55.09 55.5 2.8 56 13.1
2004-06-25 07:20:57 51°16.584 2°55.094 55.2 2.9 60 13.1
2004-06-25 07:21:01 51°16.586 2°55.098 55.1 2.9 57 13.1
2004-06-25 07:21:08 51°16.589 2°55.106 55.3 2.9 54 12.9
2004-06-25 07:21:13 51°16.591 2°55.111 55.3 2.8 54 13
2004-06-25 07:21:18 51°16.593 2°55.116 55.3 2.8 58 13.1
2004-06-25 07:21:21 51°16.594 2°55.119 54.2 2.8 60 13.1
2004-06-25 07:21:28 51°16.597 2°55.127 54.4 2.7 54 13.1
2004-06-25 07:21:33 51°16.6 2°55.131 54.5 2.8 47 12.9
2004-06-25 07:21:37 51°16.601 2°55.137 54.4 3 69 13.1
2004-06-25 07:21:41 51°16.603 2°55.14 54.5 2.7 52 12.8
2004-06-25 07:21:48 51°16.606 2°55.147 54.3 2.6 52 12.6
2004-06-25 07:21:53 51°16.607 2°55.153 54.4 2.7 61 12.6
2004-06-25 07:21:58 51°16.61 2°55.158 54.5 2.5 50 12.5
2004-06-25 07:22:03 51°16.612 2°55.163 52.9 2.7 54 12.5
2004-06-25 07:22:08 51°16.614 2°55.168 52 2.7 58 12.6
2004-06-25 07:22:13 51°16.616 2°55.172 51.5 2.7 52 12.8
2004-06-25 07:22:17 51°16.617 2°55.177 51.6 2.7 58 13.1
2004-06-25 07:22:21 51°16.62 2°55.18 51.8 2.7 52 13.3
2004-06-25 07:22:28 51°16.623 2°55.187 51.6 2.7 50 13.4
2004-06-25 07:22:33 51°16.625 2°55.192 51.5 2.7 52 13.4
2004-06-25 07:22:37 51°16.626 2°55.197 51.7 2.8 61 13.6
2004-06-25 07:22:41 51°16.628 2°55.2 52 2.8 50 13.2
2004-06-25 07:22:48 51°16.631 2°55.207 52 2.8 54 13.2
2004-06-25 07:22:53 51°16.634 2°55.212 51.9 2.8 54 13
2004-06-25 07:22:57 51°16.635 2°55.216 52.2 2.8 52 13
2004-06-25 07:23:01 51°16.637 2°55.221 51.5 2.8 58 12.9
2004-06-25 07:23:07 51°16.64 2°55.227 51.6 2.7 54 12.8
2004-06-25 07:23:13 51°16.643 2°55.233 52.5 2.9 56 12.9
2004-06-25 07:23:17 51°16.644 2°55.238 53.5 3.1 56 12.8
2004-06-25 07:23:23 51°16.647 2°55.244 52.8 2.9 56 12.5
2004-06-25 07:23:28 51°16.649 2°55.249 52.6 3 56 12.3
2004-06-25 07:23:33 51°16.652 2°55.254 53.9 2.8 54 12.5
2004-06-25 07:23:37 51°16.653 2°55.258 53.6 2.8 55 12.6
2004-06-25 07:23:41 51°16.655 2°55.263 54.1 3 56 12.9
2004-06-25 07:23:50 51°16.659 2°55.272 54.1 2.9 59 12.9
2004-06-25 07:23:55 51°16.661 2°55.278 55.8 3 60 12.9
2004-06-25 07:24:00 51°16.664 2°55.282 56 3.1 54 12.9
2004-06-25 07:24:05 51°16.666 2°55.289 55.5 3 60 13.2
2004-06-25 07:24:10 51°16.668 2°55.294 56 3 54 12.9
2004-06-25 07:24:13 51°16.669 2°55.298 58.2 3 48 12.9
2004-06-25 07:24:20 51°16.672 2°55.306 58.7 3.3 75 13.1
2004-06-25 07:24:29 51°16.676 2°55.316 61.3 3 53 12.6
2004-06-25 07:24:35 51°16.678 2°55.323 61.2 3.1 59 12.7
2004-06-25 07:24:40 51°16.68 2°55.33 62.4 3.2 69 12.8
2004-06-25 07:24:44 51°16.682 2°55.334 63.2 3 57 12.8
2004-06-25 07:24:50 51°16.684 2°55.341 64.5 3.1 65 12.9
2004-06-25 07:24:55 51°16.685 2°55.348 65.4 3.1 65 12.8
2004-06-25 07:25:00 51°16.688 2°55.354 65.2 3.1 61 12.8
2004-06-25 07:25:05 51°16.689 2°55.361 65.8 3.2 69 12.8
2004-06-25 07:25:10 51°16.692 2°55.367 67.5 3.2 58 12.8
2004-06-25 07:25:16 51°16.693 2°55.375 67.1 3.1 75 13
2004-06-25 07:25:20 51°16.694 2°55.38 68.4 3.2 59 12.6
2004-06-25 07:25:25 51°16.696 2°55.386 70.7 3.1 65 12.6
2004-06-25 07:25:29 51°16.698 2°55.392 73.2 3.2 69 12.6
2004-06-25 07:25:34 51°16.699 2°55.398 73.8 3.2 68 12.7
2004-06-25 07:25:40 51°16.701 2°55.406 74.1 3.1 67 12.7
2004-06-25 07:25:44 51°16.702 2°55.411 75.6 3.3 66 12.8
2004-06-25 07:25:49 51°16.704 2°55.418 76.6 3.3 71 12.8
2004-06-25 07:25:54 51°16.705 2°55.425 76.7 3.3 65 12.9
2004-06-25 07:26:00 51°16.706 2°55.434 77.3 3.3 79 12.9
2004-06-25 07:26:05 51°16.709 2°55.44 78.4 3.3 65 12.7
2004-06-25 07:26:10 51°16.71 2°55.447 79.5 3.4 79 12.8
2004-06-25 07:26:15 51°16.71 2°55.454 81 3.3 76 12.7
2004-06-25 07:26:20 51°16.712 2°55.461 81.7 3.2 76 12.6
2004-06-25 07:26:25 51°16.713 2°55.468 83.2 3.3 73 12.5
2004-06-25 07:26:29 51°16.714 2°55.474 84.5 3.3 75 12.6
2004-06-25 07:26:38 51°16.716 2°55.486 86.2 3.3 76 12.9
2004-06-25 07:26:42 51°16.716 2°55.492 86.6 3.3 86 12.7
2004-06-25 07:26:48 51°16.718 2°55.501 88 3.4 70 12.7
2004-06-25 07:26:53 51°16.718 2°55.508 89 3.4 85 12.7
2004-06-25 07:26:58 51°16.719 2°55.515 89.7 3.4 73 12.7
2004-06-25 07:27:01 51°16.719 2°55.52 90.9 3.4 80 12.8
2004-06-25 07:27:08 51°16.721 2°55.53 90.4 3.3 75 12.6
2004-06-25 07:27:13 51°16.722 2°55.537 92.5 3.5 77 12.8
2004-06-25 07:27:17 51°16.722 2°55.543 92.9 3.3 86 12.8
2004-06-25 07:27:23 51°16.722 2°55.551 93.4 3.2 82 12.7
2004-06-25 07:27:28 51°16.723 2°55.559 94.7 3.3 81 12.6
2004-06-25 07:27:33 51°16.723 2°55.566 95 3.3 83 12.6
2004-06-25 07:27:37 51°16.724 2°55.572 95.6 3.2 85 12.5
2004-06-25 07:27:42 51°16.724 2°55.579 96.5 3.3 77 12.6
2004-06-25 07:27:48 51°16.724 2°55.587 95.7 3.3 90 12.6
2004-06-25 07:27:50 51°16.724 2°55.59 96.3 3.2 80 12.6
2004-06-25 07:27:58 51°16.724 2°55.602 97.2 3.3 95 12.5
2004-06-25 07:28:03 51°16.726 2°55.61 97.4 3.5 76 12.4
2004-06-25 07:28:08 51°16.726 2°55.617 96.8 3.2 98 12.6
2004-06-25 07:28:13 51°16.725 2°55.624 96 3.2 90 12.5
2004-06-25 07:28:17 51°16.725 2°55.63 97.5 3.3 92 12.1
2004-06-25 07:28:21 51°16.726 2°55.636 98.7 3.4 85 12.1
2004-06-25 07:28:28 51°16.725 2°55.646 98.2 3.3 94 12.2
2004-06-25 07:28:33 51°16.726 2°55.653 98.7 3.3 87 12.4
2004-06-25 07:28:37 51°16.726 2°55.659 99.4 3.2 94 12.6
2004-06-25 07:28:42 51°16.726 2°55.666 99.3 3.2 90 12.6
2004-06-25 07:28:48 51°16.726 2°55.675 99.7 3.3 93 12.7
2004-06-25 07:28:52 51°16.726 2°55.68 100.1 3.3 92 12.6
2004-06-25 07:28:58 51°16.726 2°55.689 100.4 3.3 90 12.7
2004-06-25 07:29:03 51°16.726 2°55.696 100.1 3.2 87 12.6
2004-06-25 07:29:08 51°16.726 2°55.704 100.9 3.3 93 12.3
2004-06-25 07:29:13 51°16.726 2°55.711 101.3 3.2 92 12.5
2004-06-25 07:29:17 51°16.726 2°55.716 101.5 3.1 89 12.3
2004-06-25 07:29:24 51°16.726 2°55.726 102.6 3.2 94 12.3
2004-06-25 07:29:28 51°16.725 2°55.732 103 3.2 95 12.3
2004-06-25 07:29:33 51°16.725 2°55.738 103 3.1 94 12.3
2004-06-25 07:29:37 51°16.725 2°55.744 103.7 3.1 90 12.4
2004-06-25 07:29:43 51°16.725 2°55.752 103.5 3.1 93 12.4
2004-06-25 07:29:48 51°16.725 2°55.759 103.2 3.2 89 12.3
2004-06-25 07:29:53 51°16.725 2°55.766 103.6 3.1 89 12.4
2004-06-25 07:29:58 51°16.724 2°55.773 103 3 95 12.2
2004-06-25 07:30:02 51°16.725 2°55.778 103.2 3 91 12.2
2004-06-25 07:30:08 51°16.725 2°55.787 103 2.9 93 12.2
2004-06-25 07:30:13 51°16.724 2°55.793 101.9 3.2 88 12.3
2004-06-25 07:30:16 51°16.725 2°55.797 101.5 3 91 12
2004-06-25 07:30:22 51°16.724 2°55.805 102.3 3 85 11.9
2004-06-25 07:30:28 51°16.724 2°55.813 101.2 3.1 93 12
2004-06-25 07:30:33 51°16.724 2°55.82 101.1 3.1 88 12.2
2004-06-25 07:30:36 51°16.724 2°55.824 100.5 2.9 94 12.2
2004-06-25 07:30:41 51°16.724 2°55.831 100.3 3.1 84 12.1
2004-06-25 07:30:48 51°16.724 2°55.84 99.5 3 95 12.3
2004-06-25 07:30:53 51°16.725 2°55.846 98.7 3 84 12.2
2004-06-25 07:30:58 51°16.724 2°55.853 97.6 3 95 12.1
2004-06-25 07:31:03 51°16.725 2°55.86 97.2 3 84 12.1
2004-06-25 07:31:08 51°16.725 2°55.866 97.8 3.2 84 12.2
2004-06-25 07:31:13 51°16.725 2°55.873 96.1 3 88 12
2004-06-25 07:31:18 51°16.726 2°55.88 96.4 3.1 81 11.9
2004-06-25 07:31:22 51°16.725 2°55.885 95 3.1 93 12.1
2004-06-25 07:31:28 51°16.726 2°55.893 94.6 3.1 85 12
2004-06-25 07:31:33 51°16.727 2°55.901 94.5 3.2 85 12
2004-06-25 07:31:38 51°16.727 2°55.908 94.5 3.2 86 12.1
2004-06-25 07:31:43 51°16.728 2°55.914 94.3 3.2 78 12.2
2004-06-25 07:31:48 51°16.728 2°55.921 93.3 3.1 90 12.1
2004-06-25 07:31:53 51°16.729 2°55.928 92.9 3.2 80 11.9
2004-06-25 07:31:57 51°16.728 2°55.934 92.4 3.3 89 12
2004-06-25 07:32:03 51°16.729 2°55.943 91.6 3.3 85 12
2004-06-25 07:32:08 51°16.73 2°55.95 91.2 3.3 74 12
2004-06-25 07:32:13 51°16.731 2°55.957 90.6 3.3 88 12
2004-06-25 07:32:17 51°16.731 2°55.963 90.7 3.3 78 12.1
2004-06-25 07:32:22 51°16.731 2°55.97 89.3 3.2 92 12.1
2004-06-25 07:32:28 51°16.733 2°55.978 90 3.3 79 11.9
2004-06-25 07:32:30 51°16.733 2°55.981 89.7 3.3 84 11.9
2004-06-25 07:32:38 51°16.734 2°55.992 89.3 3.1 76 12
2004-06-25 07:32:43 51°16.734 2°55.999 88.5 3.2 84 12
2004-06-25 07:32:48 51°16.736 2°56.006 88.5 3.1 74 11.7
2004-06-25 07:32:53 51°16.736 2°56.013 88.6 3.1 76 11.7
2004-06-25 07:32:58 51°16.737 2°56.02 87.8 3.1 86 11.8
2004-06-25 07:33:02 51°16.737 2°56.025 87.4 3.2 76 11.8
2004-06-25 07:33:07 51°16.738 2°56.032 87.2 3.1 80 11.9
2004-06-25 07:33:12 51°16.739 2°56.039 86.2 3 82 12
2004-06-25 07:33:16 51°16.74 2°56.044 85.7 3.1 78 11.8
2004-06-25 07:33:23 51°16.741 2°56.053 86.2 3.2 79 11.7
2004-06-25 07:33:28 51°16.741 2°56.06 85.6 3.1 81 11.7
2004-06-25 07:33:32 51°16.742 2°56.065 84.9 3 81 11.8
2004-06-25 07:33:38 51°16.742 2°56.073 84.2 3 88 11.9
2004-06-25 07:33:43 51°16.744 2°56.079 84.7 3.1 70 11.7
2004-06-25 07:33:48 51°16.744 2°56.086 84.1 3.1 86 11.8
2004-06-25 07:33:53 51°16.745 2°56.092 83.2 3 78 11.9
2004-06-25 07:33:57 51°16.746 2°56.097 82.5 3 78 12
2004-06-25 07:34:01 51°16.746 2°56.103 81.5 3 81 12.1
2004-06-25 07:34:06 51°16.748 2°56.109 81.4 3 88 11.9
2004-06-25 07:34:13 51°16.749 2°56.118 80.4 3 65 12
2004-06-25 07:34:17 51°16.749 2°56.123 78.4 3.1 88 11.8
2004-06-25 07:34:23 51°16.751 2°56.13 79.3 2.9 66 11.8
2004-06-25 07:34:28 51°16.752 2°56.137 78.3 2.9 75 11.8
2004-06-25 07:34:33 51°16.753 2°56.144 77.2 3 71 11.9
2004-06-25 07:34:38 51°16.754 2°56.15 76.6 3.1 78 11.9
2004-06-25 07:34:43 51°16.756 2°56.156 74.6 2.9 63 11.9
2004-06-25 07:34:48 51°16.757 2°56.162 72.5 3.1 82 12.1
2004-06-25 07:34:51 51°16.758 2°56.166 71.2 3 77 11.9
2004-06-25 07:34:57 51°16.76 2°56.173 70.6 3 62 11.8
2004-06-25 07:35:03 51°16.761 2°56.181 70 3 74 12
2004-06-25 07:35:08 51°16.763 2°56.187 68.9 2.9 70 12
2004-06-25 07:35:13 51°16.765 2°56.193 68.7 2.9 61 11.9
2004-06-25 07:35:18 51°16.766 2°56.199 70 3 71 11.9
2004-06-25 07:35:23 51°16.767 2°56.205 69.6 2.9 69 12
2004-06-25 07:35:28 51°16.769 2°56.211 68.9 2.9 60 11.7
2004-06-25 07:35:33 51°16.771 2°56.217 70.3 2.9 58 11.6
2004-06-25 07:35:38 51°16.772 2°56.223 71.5 3 76 11.9
2004-06-25 07:35:43 51°16.774 2°56.229 72 2.8 63 11.9
2004-06-25 07:35:47 51°16.775 2°56.234 72.5 2.9 70 11.9
2004-06-25 07:35:53 51°16.777 2°56.241 71.8 2.8 69 11.9
2004-06-25 07:35:58 51°16.778 2°56.247 72.1 2.9 68 12
2004-06-25 07:36:03 51°16.779 2°56.253 72 2.9 71 12.1
2004-06-25 07:36:08 51°16.781 2°56.259 71.1 2.8 62 12
2004-06-25 07:36:13 51°16.783 2°56.264 70.4 3 57 12.1
2004-06-25 07:36:17 51°16.783 2°56.269 68.8 2.9 75 12.1
2004-06-25 07:36:22 51°16.786 2°56.275 68.1 2.9 69 11.9
2004-06-25 07:36:28 51°16.788 2°56.282 68.3 2.9 65 11.8
2004-06-25 07:36:33 51°16.789 2°56.288 67.9 3 66 11.8
2004-06-25 07:36:42 51°16.792 2°56.299 66.6 2.9 62 11.7
2004-06-25 07:36:46 51°16.793 2°56.304 67.5 3 71 11.7
2004-06-25 07:36:52 51°16.795 2°56.31 66.5 2.9 65 11.9
2004-06-25 07:36:56 51°16.796 2°56.316 66.2 2.8 66 12
2004-06-25 07:37:02 51°16.798 2°56.322 66.7 2.9 67 11.8
2004-06-25 07:37:06 51°16.8 2°56.327 67 3 66 11.9
2004-06-25 07:37:11 51°16.801 2°56.333 65.5 2.9 71 11.9
2004-06-25 07:37:17 51°16.803 2°56.34 64.9 2.8 69 11.7
2004-06-25 07:37:22 51°16.805 2°56.346 66.4 2.9 63 11.7
2004-06-25 07:37:27 51°16.807 2°56.352 66.6 2.9 70 11.7
2004-06-25 07:37:32 51°16.807 2°56.358 66.2 2.8 64 11.8
2004-06-25 07:37:37 51°16.81 2°56.364 66 3 63 11.7
2004-06-25 07:37:42 51°16.811 2°56.37 66.1 2.9 66 11.7
2004-06-25 07:37:47 51°16.813 2°56.375 64.9 2.8 60 11.6
2004-06-25 07:37:52 51°16.815 2°56.381 66.3 2.7 57 11.8
2004-06-25 07:37:57 51°16.816 2°56.387 66.2 2.9 74 11.6
2004-06-25 07:38:02 51°16.818 2°56.392 65.6 2.8 59 11.7
2004-06-25 07:38:06 51°16.818 2°56.397 66.5 2.9 80 11.9
2004-06-25 07:38:12 51°16.821 2°56.403 66.3 2.7 75 11.7
2004-06-25 07:38:17 51°16.822 2°56.409 66.7 2.6 64 11.8
2004-06-25 07:38:22 51°16.822 2°56.415 67.4 2.7 86 11.7
2004-06-25 07:38:26 51°16.824 2°56.418 68.1 2.5 65 11.4
2004-06-25 07:38:32 51°16.825 2°56.426 69.2 2.5 75 11.3
2004-06-25 07:38:37 51°16.827 2°56.431 70.1 2.6 65 11.2
2004-06-25 07:38:42 51°16.828 2°56.436 68.8 2.7 73 11.4
2004-06-25 07:38:46 51°16.828 2°56.44 67.9 2.6 75 11.5
2004-06-25 07:38:52 51°16.83 2°56.446 67.2 2.5 69 11.6
2004-06-25 07:38:57 51°16.831 2°56.451 66.6 2.4 67 11.7
2004-06-25 07:39:02 51°16.833 2°56.457 66.7 2.6 66 11.7
2004-06-25 07:39:08 51°16.835 2°56.462 64.9 2.5 57 11.8
2004-06-25 07:39:12 51°16.835 2°56.467 63.1 2.6 79 11.8
2004-06-25 07:39:17 51°16.837 2°56.471 62.5 2.4 53 12
2004-06-25 07:39:22 51°16.837 2°56.477 61.6 2.7 81 12
2004-06-25 07:39:26 51°16.839 2°56.48 62.4 2.5 65 12
2004-06-25 07:39:32 51°16.841 2°56.486 61.4 2.4 65 11.9
2004-06-25 07:39:37 51°16.841 2°56.492 60.7 2.5 72 11.7
2004-06-25 07:39:42 51°16.843 2°56.497 61.3 2.5 66 11.7
2004-06-25 07:39:46 51°16.843 2°56.501 61.7 2.5 71 11.6
2004-06-25 07:39:52 51°16.845 2°56.507 61.7 2.7 79 11.3
2004-06-25 07:39:57 51°16.847 2°56.511 63 2.3 58 11.2
2004-06-25 07:40:00 51°16.848 2°56.515 63.7 2.6 68 11.3
2004-06-25 07:40:07 51°16.85 2°56.522 62.9 2.6 57 11.3
2004-06-25 07:40:12 51°16.851 2°56.527 62.6 2.5 59 11.4
2004-06-25 07:40:17 51°16.853 2°56.532 61.4 2.5 66 11.7
2004-06-25 07:40:22 51°16.854 2°56.537 61.5 2.4 61 11.6
2004-06-25 07:40:27 51°16.856 2°56.542 62 2.6 64 11.8
2004-06-25 07:40:32 51°16.857 2°56.547 63.2 2.6 68 11.9
2004-06-25 07:40:37 51°16.859 2°56.552 62.6 2.6 58 12
2004-06-25 07:40:42 51°16.861 2°56.558 62 2.7 66 12.1
2004-06-25 07:40:47 51°16.862 2°56.563 62.4 2.5 63 12.1
2004-06-25 07:40:52 51°16.864 2°56.567 61.3 2.6 71 11.9
2004-06-25 07:40:57 51°16.865 2°56.574 61 2.8 77 11.7
2004-06-25 07:41:02 51°16.868 2°56.578 62.2 2.7 51 11.5
2004-06-25 07:41:05 51°16.868 2°56.581 62.4 2.7 62 11.6
2004-06-25 07:41:12 51°16.871 2°56.588 62.2 2.7 62 12
2004-06-25 07:41:17 51°16.872 2°56.594 62.1 2.7 71 11.9
2004-06-25 07:41:22 51°16.874 2°56.598 63.1 2.7 52 11.8
2004-06-25 07:41:27 51°16.875 2°56.604 63.5 2.6 66 11.8
2004-06-25 07:41:32 51°16.877 2°56.61 64.1 2.7 54 11.7
2004-06-25 07:41:37 51°16.879 2°56.615 64.7 2.7 68 11.7
2004-06-25 07:41:41 51°16.881 2°56.619 64.2 2.6 60 11.4
2004-06-25 07:41:46 51°16.882 2°56.624 65.3 2.7 65 11.4
2004-06-25 07:41:52 51°16.884 2°56.631 65.9 2.7 68 11.6
2004-06-25 07:41:57 51°16.885 2°56.637 65.6 2.7 68 11.6
2004-06-25 07:42:02 51°16.886 2°56.642 65.9 2.5 68 11.3
2004-06-25 07:42:06 51°16.888 2°56.646 66.7 2.6 58 11.2
2004-06-25 07:42:12 51°16.889 2°56.652 67.5 2.6 68 11.5
2004-06-25 07:42:17 51°16.889 2°56.658 68.5 2.6 74 11.3
2004-06-25 07:42:22 51°16.891 2°56.663 69 2.5 65 11
2004-06-25 07:42:27 51°16.892 2°56.668 71.8 2.5 79 11.1
2004-06-25 07:42:31 51°16.893 2°56.672 73 2.5 85 11.3
2004-06-25 07:42:36 51°16.894 2°56.677 73.8 2.5 61 11.6
2004-06-25 07:42:42 51°16.894 2°56.684 75.6 2.6 82 11.9
2004-06-25 07:42:46 51°16.895 2°56.688 76.8 2.5 73 12
2004-06-25 07:42:52 51°16.896 2°56.695 78.4 2.6 76 11.9
2004-06-25 07:42:57 51°16.897 2°56.701 79.9 2.6 80 11.8
2004-06-25 07:43:01 51°16.898 2°56.705 81.2 2.6 74 11.8
2004-06-25 07:43:07 51°16.898 2°56.712 83 2.7 86 11.8
2004-06-25 07:43:12 51°16.899 2°56.718 83.5 2.7 84 11.4
2004-06-25 07:43:16 51°16.9 2°56.723 86.3 2.8 70 11.3
2004-06-25 07:43:22 51°16.9 2°56.731 88.2 2.8 92 11.4
2004-06-25 07:43:26 51°16.9 2°56.735 89 2.9 79 11.4
2004-06-25 07:43:32 51°16.9 2°56.743 90.2 3 84 11.3
2004-06-25 07:43:35 51°16.902 2°56.748 92.6 2.9 83 11.2
2004-06-25 07:43:41 51°16.901 2°56.755 94.4 3 96 11.3
2004-06-25 07:43:46 51°16.901 2°56.762 95 3 89 11.3
2004-06-25 07:43:52 51°16.901 2°56.771 97.2 3.2 88 11.5
2004-06-25 07:43:57 51°16.901 2°56.777 98.6 3.1 96 11.7
2004-06-25 07:44:02 51°16.901 2°56.784 99.7 2.9 92 11.8
2004-06-25 07:44:07 51°16.9 2°56.79 101.9 2.9 96 11.8
2004-06-25 07:44:12 51°16.9 2°56.797 102.6 2.9 90 11.6
2004-06-25 07:44:17 51°16.9 2°56.803 104.9 3 87 11.8
2004-06-25 07:44:20 51°16.899 2°56.806 104.5 2.7 105 11.3
2004-06-25 07:44:25 51°16.899 2°56.813 106 2.9 95 11.3
2004-06-25 07:44:32 51°16.898 2°56.821 106.9 2.7 91 11.1
2004-06-25 07:44:37 51°16.898 2°56.827 108.1 2.8 87 11.2
2004-06-25 07:44:41 51°16.897 2°56.832 108.1 2.8 107 11.2
2004-06-25 07:44:47 51°16.897 2°56.839 108.9 2.8 93 11.2
2004-06-25 07:44:52 51°16.896 2°56.845 111.1 2.9 90 11.3
2004-06-25 07:44:57 51°16.895 2°56.85 111 2.5 104 11.1
2004-06-25 07:45:02 51°16.895 2°56.856 112.6 2.7 101 11.1
2004-06-25 07:45:06 51°16.894 2°56.861 113.9 2.6 98 11.2
2004-06-25 07:45:12 51°16.893 2°56.868 113.3 2.5 103 11.2
2004-06-25 07:45:17 51°16.893 2°56.873 115.2 2.6 96 11.2
2004-06-25 07:45:22 51°16.891 2°56.878 115.7 2.5 113 11.3
2004-06-25 07:45:27 51°16.891 2°56.884 117 2.6 97 11.2
2004-06-25 07:45:32 51°16.89 2°56.889 119 2.5 109 11.3
2004-06-25 07:45:37 51°16.889 2°56.894 118.9 2.4 105 11.2
2004-06-25 07:45:42 51°16.888 2°56.899 120.1 2.3 105 11.2
2004-06-25 07:45:47 51°16.887 2°56.905 121.7 2.5 107 11
2004-06-25 07:45:52 51°16.886 2°56.91 122.6 2.3 109 11.1
2004-06-25 07:45:57 51°16.885 2°56.915 123.8 2.4 107 11.1
2004-06-25 07:46:02 51°16.884 2°56.92 125 2.4 109 11.1
2004-06-25 07:46:07 51°16.883 2°56.925 126.6 2.3 109 11.1
2004-06-25 07:46:11 51°16.882 2°56.929 127.4 2.3 112 11
2004-06-25 07:46:16 51°16.881 2°56.933 128.7 2.3 113 11.2
2004-06-25 07:46:21 51°16.88 2°56.938 130.2 2.2 112 11.2
2004-06-25 07:46:27 51°16.878 2°56.943 131.7 2.2 119 11.1
2004-06-25 07:46:29 51°16.877 2°56.945 134.2 2.3 112 11.1
2004-06-25 07:46:37 51°16.875 2°56.952 135.4 2.1 123 11
2004-06-25 07:46:42 51°16.874 2°56.957 137.3 2.2 112 10.9
2004-06-25 07:46:46 51°16.872 2°56.96 138.6 2.2 124 10.9
2004-06-25 07:46:52 51°16.871 2°56.965 140.1 2.1 118 11
2004-06-25 07:46:57 51°16.869 2°56.968 141.6 2 125 11
2004-06-25 07:47:02 51°16.868 2°56.973 143.7 2.1 119 10.9
2004-06-25 07:47:07 51°16.866 2°56.976 145.6 2 127 11
2004-06-25 07:47:11 51°16.866 2°56.979 148 1.9 130 11
2004-06-25 07:47:17 51°16.863 2°56.984 150.3 1.9 120 10.7
2004-06-25 07:47:22 51°16.862 2°56.987 150.6 1.9 127 10.5
2004-06-25 07:47:26 51°16.86 2°56.989 152.4 1.8 131 10.6
2004-06-25 07:47:30 51°16.86 2°56.992 154.6 1.7 137 10.8
2004-06-25 07:47:37 51°16.857 2°56.996 156.9 1.8 126 10.9
2004-06-25 07:47:41 51°16.856 2°56.997 158.2 1.7 136 10.8
2004-06-25 07:47:47 51°16.854 2°57.001 159.7 1.7 126 10.9
2004-06-25 07:47:50 51°16.853 2°57.003 161.3 1.6 141 10.9
2004-06-25 07:47:57 51°16.851 2°57.006 163.1 1.5 136 11
2004-06-25 07:48:02 51°16.85 2°57.009 164.7 1.6 133 11.1
2004-06-25 07:48:07 51°16.848 2°57.011 166.5 1.4 140 10.9
2004-06-25 07:48:12 51°16.846 2°57.014 169.1 1.6 131 10.9
2004-06-25 07:48:15 51°16.845 2°57.015 169 1.5 144 10.9
2004-06-25 07:48:22 51°16.843 2°57.018 171.1 1.6 142 11.1
2004-06-25 07:48:26 51°16.842 2°57.021 173.1 1.9 127 11.2
2004-06-25 07:48:32 51°16.839 2°57.024 175.6 1.8 156 10.7
2004-06-25 07:48:36 51°16.837 2°57.024 174.6 1.8 158 10.4
2004-06-25 07:48:41 51°16.835 2°57.027 178.4 1.9 154 10.6
2004-06-25 07:48:46 51°16.832 2°57.028 181.3 1.9 157 10.8
2004-06-25 07:48:52 51°16.829 2°57.031 183.6 2 163 11
2004-06-25 07:48:56 51°16.827 2°57.031 185.9 2.1 161 10.9
2004-06-25 07:49:01 51°16.824 2°57.032 187.8 2.2 169 11.1
2004-06-25 07:49:07 51°16.82 2°57.033 190.1 2.3 171 11
2004-06-25 07:49:12 51°16.817 2°57.033 190.8 2.1 183 11
2004-06-25 07:49:17 51°16.814 2°57.034 193.7 2.4 173 11
2004-06-25 07:49:21 51°16.811 2°57.035 195.6 2.2 177 11.2
2004-06-25 07:49:26 51°16.808 2°57.035 198.1 2.4 181 11
2004-06-25 07:49:32 51°16.804 2°57.033 198.8 2.3 184 11
2004-06-25 07:49:37 51°16.801 2°57.034 202.5 2.5 179 11
2004-06-25 07:49:42 51°16.798 2°57.032 204 2.2 197 11.2
2004-06-25 07:49:46 51°16.795 2°57.034 205.7 2.5 171 11.2
2004-06-25 07:49:52 51°16.791 2°57.032 208.2 2.3 188 10.9
2004-06-25 07:49:57 51°16.788 2°57.031 208.9 2.3 191 10.8
2004-06-25 07:50:01 51°16.786 2°57.03 211.4 2.2 194 10.9
2004-06-25 07:50:06 51°16.783 2°57.029 213.4 2.1 193 11.1
2004-06-25 07:50:12 51°16.779 2°57.027 215.5 2.1 198 11.2
2004-06-25 07:50:17 51°16.777 2°57.025 216.9 1.9 207 11.4
2004-06-25 07:50:22 51°16.774 2°57.024 218.9 2.1 191 11.4
2004-06-25 07:50:27 51°16.772 2°57.022 220.7 1.9 204 11.2
2004-06-25 07:50:32 51°16.77 2°57.021 222.1 2 198 11.4
2004-06-25 07:50:37 51°16.767 2°57.019 224.8 1.9 197 11.1
2004-06-25 07:50:40 51°16.766 2°57.019 225.6 1.6 210 11.1
2004-06-25 07:50:47 51°16.764 2°57.018 226.6 1.6 202 10.8
2004-06-25 07:50:52 51°16.763 2°57.015 225.8 1.2 215 10.8
2004-06-25 07:50:56 51°16.76 2°57.015 226.9 1.6 182 10.7
2004-06-25 07:51:02 51°16.759 2°57.013 227.1 1.1 236 10.8
2004-06-25 07:51:06 51°16.758 2°57.014 228.9 1.3 184 10.8
2004-06-25 07:51:12 51°16.756 2°57.012 229.5 1 197 11.1
2004-06-25 07:51:17 51°16.755 2°57.013 230.4 1.2 181 11.3
2004-06-25 07:51:22 51°16.753 2°57.013 230.4 0.8 182 10.9
2004-06-25 07:51:27 51°16.753 2°57.012 230.1 0.8 168 10.9
2004-06-25 07:51:32 51°16.751 2°57.012 230.2 0.7 188 10.8
2004-06-25 07:51:36 51°16.751 2°57.012 229.7 0.8 165 10.6
2004-06-25 07:51:42 51°16.749 2°57.013 228.1 0.9 177 10.7
2004-06-25 07:51:46 51°16.748 2°57.013 228.2 1.4 151 10.9
2004-06-25 07:51:52 51°16.748 2°57.013 227.9 0.4 219 10.9
2004-06-25 07:51:57 51°16.746 2°57.014 227.9 0.7 167 11.2
2004-06-25 07:52:02 51°16.746 2°57.014 227.9 0.5 174 11.3
2004-06-25 07:52:07 51°16.745 2°57.015 227.1 1 151 11.5
2004-06-25 07:52:12 51°16.744 2°57.016 227.7 0.7 149 11.5
2004-06-25 07:52:16 51°16.743 2°57.016 227.1 0.5 148 11.3
2004-06-25 07:52:22 51°16.743 2°57.017 226.9 0.6 152 11.3
2004-06-25 07:52:28 51°16.742 2°57.017 226.7 0.7 148 11.4
2004-06-25 07:52:32 51°16.741 2°57.018 227.9 0.7 145 11.4
2004-06-25 07:52:37 51°16.74 2°57.019 228 0.6 144 11.2
2004-06-25 07:52:42 51°16.74 2°57.02 227.9 0.4 134 11.2
2004-06-25 07:52:47 51°16.74 2°57.02 228.3 0.7 133 11.2
2004-06-25 07:52:52 51°16.739 2°57.022 228.4 0.3 140 11.1
2004-06-25 07:52:57 51°16.738 2°57.022 228.4 0.4 131 11
2004-06-25 07:53:00 51°16.738 2°57.023 228.1 0.7 122 11.1
2004-06-25 07:53:07 51°16.737 2°57.025 228.2 0.8 120 11.1
2004-06-25 07:53:12 51°16.737 2°57.027 229.2 0.3 117 10.8
2004-06-25 07:53:17 51°16.736 2°57.027 227.6 0.4 108 10.8
2004-06-25 07:53:21 51°16.736 2°57.029 227.2 0.9 123 10.9
2004-06-25 07:53:28 51°16.735 2°57.031 227 0.7 120 10.9
2004-06-25 07:53:32 51°16.735 2°57.031 225.5 0.2 48 11
2004-06-25 07:53:37 51°16.734 2°57.034 225.9 1.3 124 10.9
2004-06-25 07:53:42 51°16.734 2°57.034 225 0.3 78 10.7
2004-06-25 07:53:47 51°16.734 2°57.036 224.4 0.7 116 10.8
2004-06-25 07:53:52 51°16.733 2°57.037 223.5 0.9 101 11
2004-06-25 07:53:57 51°16.733 2°57.039 222.7 0.8 105 10.9
2004-06-25 07:54:00 51°16.733 2°57.04 221.9 0.9 106 11.1
2004-06-25 07:54:06 51°16.732 2°57.042 221.3 0.9 103 11
2004-06-25 07:54:12 51°16.732 2°57.044 219.9 1.2 117 11
2004-06-25 07:54:16 51°16.731 2°57.047 218.5 1.4 114 10.9
2004-06-25 07:54:22 51°16.731 2°57.048 216.5 0.5 95 10.8
2004-06-25 07:54:27 51°16.731 2°57.051 216.5 1.1 107 10.9
2004-06-25 07:54:32 51°16.731 2°57.052 216.7 1.3 110 10.7
2004-06-25 07:54:37 51°16.73 2°57.054 213.6 0.8 102 10.8
2004-06-25 07:54:41 51°16.73 2°57.056 212.6 1.1 107 10.9
2004-06-25 07:54:46 51°16.73 2°57.057 212 0.6 99 11
2004-06-25 07:54:52 51°16.729 2°57.06 210.4 1.3 106 11.2
2004-06-25 07:54:56 51°16.729 2°57.061 210.5 1 102 11.1
2004-06-25 07:55:02 51°16.729 2°57.063 208.8 0.7 100 11.2
2004-06-25 07:55:06 51°16.728 2°57.066 208 1.2 105 11.3
2004-06-25 07:55:12 51°16.728 2°57.067 206.9 0.9 103 11.2
2004-06-25 07:55:17 51°16.728 2°57.069 206.6 0.8 112 11.2
2004-06-25 07:55:22 51°16.727 2°57.071 207.2 1.1 103 11.2
2004-06-25 07:55:26 51°16.727 2°57.073 207.5 1.1 107 10.9
2004-06-25 07:55:32 51°16.727 2°57.075 205.5 0.7 98 10.9
2004-06-25 07:55:37 51°16.727 2°57.077 205.8 1 106 11
2004-06-25 07:55:42 51°16.726 2°57.078 206.2 0.7 100 11
2004-06-25 07:55:46 51°16.726 2°57.08 205.2 0.7 102 11
2004-06-25 07:55:52 51°16.726 2°57.082 205.3 1.1 93 11.1
2004-06-25 07:55:57 51°16.727 2°57.084 204.4 0.6 86 11.1
2004-06-25 07:56:02 51°16.726 2°57.087 203.5 1.3 101 10.9
2004-06-25 07:56:06 51°16.726 2°57.087 201.7 0.8 91 10.9
2004-06-25 07:56:12 51°16.726 2°57.09 202.2 1.2 93 10.9
2004-06-25 07:56:17 51°16.726 2°57.092 201.7 0.7 84 10.9
2004-06-25 07:56:22 51°16.726 2°57.095 201.4 1.1 94 10.9
2004-06-25 07:56:27 51°16.726 2°57.096 200 0.8 95 11
2004-06-25 07:56:32 51°16.726 2°57.099 199 1.2 91 11
2004-06-25 07:56:37 51°16.726 2°57.1 197.6 0.8 89 10.9
2004-06-25 07:56:42 51°16.725 2°57.103 195.6 1 93 11.1
2004-06-25 07:56:47 51°16.726 2°57.104 195.2 0.7 84 11.1
2004-06-25 07:56:52 51°16.725 2°57.107 194.3 1.1 92 11.1
2004-06-25 07:56:57 51°16.725 2°57.109 193.6 1 89 11.1
2004-06-25 07:57:02 51°16.725 2°57.11 192.7 0.6 102 11
2004-06-25 07:57:07 51°16.725 2°57.113 192.3 1.2 96 11.1
2004-06-25 07:57:12 51°16.725 2°57.115 192.9 1 98 11
2004-06-25 07:57:17 51°16.725 2°57.117 192.7 1 98 10.9
2004-06-25 07:57:22 51°16.724 2°57.118 192.1 0.7 100 10.9
2004-06-25 07:57:26 51°16.724 2°57.121 191.9 1.4 97 10.9
2004-06-25 07:57:32 51°16.724 2°57.123 191.6 0.8 95 10.9
2004-06-25 07:57:35 51°16.724 2°57.124 191.5 1.2 95 10.9
2004-06-25 07:57:42 51°16.724 2°57.127 191.4 0.8 105 10.8
2004-06-25 07:57:47 51°16.724 2°57.128 190.9 0.5 94 10.9
2004-06-25 07:57:52 51°16.723 2°57.131 191.3 0.4 106 11.1
2004-06-25 07:57:57 51°16.723 2°57.133 191.5 1 98 11.1
2004-06-25 07:58:01 51°16.723 2°57.134 191.3 1 100 11
2004-06-25 07:58:06 51°16.723 2°57.136 191.6 0.7 106 10.9
2004-06-25 07:58:10 51°16.722 2°57.138 191 0.7 93 10.8
2004-06-25 07:58:17 51°16.722 2°57.141 191.6 0.8 109 11
2004-06-25 07:58:21 51°16.722 2°57.143 192.2 1 105 11.2
2004-06-25 07:58:27 51°16.722 2°57.145 192.4 0.9 102 10.8
2004-06-25 07:58:29 51°16.722 2°57.146 192.3 0.9 97 10.9
2004-06-25 07:58:37 51°16.721 2°57.148 192.9 0.8 105 11
2004-06-25 07:58:42 51°16.721 2°57.15 192.3 0.7 114 11
2004-06-25 07:58:47 51°16.72 2°57.152 192.2 1.2 106 11.1
2004-06-25 07:58:52 51°16.72 2°57.154 193.1 0.8 110 11
2004-06-25 07:58:57 51°16.72 2°57.156 193.2 0.6 108 11.1
2004-06-25 07:59:02 51°16.719 2°57.158 194.3 1.3 103 11.2
2004-06-25 07:59:07 51°16.719 2°57.16 194.9 0.3 134 11
2004-06-25 07:59:12 51°16.719 2°57.161 194.1 0.7 107 11
2004-06-25 07:59:17 51°16.718 2°57.163 194.7 0.7 109 11.1
2004-06-25 07:59:22 51°16.718 2°57.164 194.9 0.8 108 11.2
2004-06-25 07:59:27 51°16.717 2°57.166 195.5 0.6 111 11.2
2004-06-25 07:59:32 51°16.717 2°57.167 195.8 0.7 118 11.2
2004-06-25 07:59:37 51°16.717 2°57.169 196.6 0.6 121 11.4
2004-06-25 07:59:41 51°16.716 2°57.171 197.8 0.8 116 11.1
2004-06-25 07:59:45 51°16.716 2°57.172 197.4 0.8 109 11.1
2004-06-25 07:59:52 51°16.715 2°57.174 197.3 0.6 106 11
2004-06-25 07:59:57 51°16.715 2°57.176 197.4 0.9 105 10.9
2004-06-25 08:00:02 51°16.715 2°57.178 196.4 0.9 117 10.9
2004-06-25 08:00:07 51°16.714 2°57.179 196 0.7 112 11.1
2004-06-25 08:00:12 51°16.714 2°57.181 196.2 0.6 105 11.2
2004-06-25 08:00:17 51°16.714 2°57.183 196.9 0.9 105 11.1
2004-06-25 08:00:22 51°16.713 2°57.184 196.8 0.8 107 11.1
2004-06-25 08:00:27 51°16.713 2°57.186 197.8 0.7 110 11.2
2004-06-25 08:00:32 51°16.713 2°57.187 198.7 0.8 106 11
2004-06-25 08:00:37 51°16.712 2°57.189 198.8 0.8 105 11.1
2004-06-25 08:00:42 51°16.712 2°57.191 198.8 0.6 108 11.1
2004-06-25 08:00:47 51°16.712 2°57.192 198.2 0.8 102 11.1
2004-06-25 08:00:52 51°16.712 2°57.194 198.4 0.8 108 11.3
2004-06-25 08:00:57 51°16.711 2°57.196 198.8 0.8 103 11.2
2004-06-25 08:01:02 51°16.711 2°57.199 197.7 1.3 96 11
2004-06-25 08:01:07 51°16.711 2°57.201 195.6 1 98 10.7
2004-06-25 08:01:12 51°16.711 2°57.203 194.8 0.8 93 10.7
2004-06-25 08:01:17 51°16.711 2°57.204 194.8 1 92 10.8
2004-06-25 08:01:22 51°16.711 2°57.206 194.5 0.8 103 10.9
2004-06-25 08:01:27 51°16.71 2°57.208 193.5 0.9 106 11.1
2004-06-25 08:01:32 51°16.71 2°57.209 192.3 0.8 100 11.2
2004-06-25 08:01:37 51°16.71 2°57.212 193.8 1.3 99 11.4
2004-06-25 08:01:42 51°16.71 2°57.212 193.1 0.4 107 11.3
2004-06-25 08:01:47 51°16.71 2°57.215 193 1 95 11.3
2004-06-25 08:01:52 51°16.71 2°57.217 193.2 1 96 11.3
2004-06-25 08:01:57 51°16.71 2°57.219 192.4 1.1 93 11.3
2004-06-25 08:02:02 51°16.709 2°57.22 191.6 0.8 101 11
2004-06-25 08:02:07 51°16.709 2°57.222 192 0.7 105 11
2004-06-25 08:02:12 51°16.708 2°57.223 192.1 0.7 123 11
2004-06-25 08:02:17 51°16.708 2°57.225 192.8 0.8 115 11.2
2004-06-25 08:02:22 51°16.708 2°57.227 193 0.7 105 10.9
2004-06-25 08:02:26 51°16.707 2°57.227 193.7 0.8 111 10.8
2004-06-25 08:02:30 51°16.707 2°57.229 193 0.6 112 11
2004-06-25 08:02:37 51°16.706 2°57.231 193.8 1 106 11.2
2004-06-25 08:02:41 51°16.706 2°57.232 193.5 0.6 110 11.1
2004-06-25 08:02:46 51°16.706 2°57.234 193.2 0.8 112 11.4
2004-06-25 08:02:52 51°16.705 2°57.236 193.6 0.5 117 11.4
2004-06-25 08:02:56 51°16.705 2°57.238 193.3 0.9 113 11.3
2004-06-25 08:03:02 51°16.704 2°57.24 193.2 1 110 11.3
2004-06-25 08:03:07 51°16.704 2°57.242 193.4 0.6 110 11.3
2004-06-25 08:03:12 51°16.703 2°57.243 193.1 0.8 115 11.2
2004-06-25 08:03:17 51°16.703 2°57.244 193.2 0.6 120 11.1
2004-06-25 08:03:22 51°16.702 2°57.246 193.6 1 115 11
2004-06-25 08:03:24 51°16.702 2°57.247 193.9 0.6 120 11.1
2004-06-25 08:03:32 51°16.701 2°57.249 193.9 1 111 11.2
2004-06-25 08:03:37 51°16.701 2°57.252 195 0.9 112 11.2
2004-06-25 08:03:42 51°16.7 2°57.253 194.3 0.8 128 11.2
2004-06-25 08:03:47 51°16.699 2°57.254 194.2 0.9 127 11.2
2004-06-25 08:03:52 51°16.698 2°57.255 195.7 1.1 145 11.2
2004-06-25 08:03:57 51°16.697 2°57.256 197.4 1 167 11.1
2004-06-25 08:04:02 51°16.695 2°57.258 198.7 1.4 153 11.1
2004-06-25 08:04:07 51°16.694 2°57.257 201 1.1 183 11.1
2004-06-25 08:04:12 51°16.692 2°57.257 203.3 1.2 186 11.1
2004-06-25 08:04:17 51°16.69 2°57.257 207.4 1.5 182 11
2004-06-25 08:04:22 51°16.688 2°57.256 208.7 1.6 188 11.3
2004-06-25 08:04:27 51°16.685 2°57.257 212.6 1.7 188 10.9
2004-06-25 08:04:32 51°16.683 2°57.254 213.7 1.7 205 10.8
2004-06-25 08:04:37 51°16.68 2°57.254 217.7 2 192 10.6
2004-06-25 08:04:41 51°16.678 2°57.252 221.1 1.8 220 10.9
2004-06-25 08:04:47 51°16.675 2°57.25 222.7 2.1 196 11
2004-06-25 08:04:52 51°16.674 2°57.247 226.1 1.9 223 11.1
2004-06-25 08:04:57 51°16.671 2°57.243 229.7 2.1 224 11.4
2004-06-25 08:05:01 51°16.67 2°57.241 233.6 2.1 223 11.4
2004-06-25 08:05:06 51°16.667 2°57.238 237.9 2.2 222 11.3
2004-06-25 08:05:12 51°16.665 2°57.233 240.6 2.3 234 11.2
2004-06-25 08:05:17 51°16.663 2°57.229 243.8 2.4 231 11.4
2004-06-25 08:05:21 51°16.662 2°57.225 246.5 2.4 239 10.9
2004-06-25 08:05:26 51°16.66 2°57.221 248.4 2.5 235 10.9
2004-06-25 08:05:32 51°16.658 2°57.215 250.6 2.7 238 11
2004-06-25 08:05:37 51°16.656 2°57.21 253.5 2.5 249 10.9
2004-06-25 08:05:42 51°16.654 2°57.205 254.6 2.6 239 11
2004-06-25 08:05:47 51°16.654 2°57.199 256.2 2.6 257 11
2004-06-25 08:05:52 51°16.652 2°57.194 258.3 2.5 252 10.9
2004-06-25 08:05:56 51°16.652 2°57.189 261.2 2.6 257 11.1
2004-06-25 08:06:01 51°16.65 2°57.183 262.2 2.7 254 11.3
2004-06-25 08:06:06 51°16.65 2°57.177 263.6 2.6 257 11.1
2004-06-25 08:06:12 51°16.65 2°57.171 265.3 2.5 262 11.2
2004-06-25 08:06:17 51°16.649 2°57.165 266.9 2.6 265 11.1
2004-06-25 08:06:20 51°16.649 2°57.162 268.3 2.6 262 11.1
2004-06-25 08:06:26 51°16.648 2°57.156 269.1 2.3 260 10.9
2004-06-25 08:06:32 51°16.648 2°57.15 269.8 2.4 266 11
2004-06-25 08:06:37 51°16.647 2°57.144 270.8 2.5 263 11.1
2004-06-25 08:06:40 51°16.647 2°57.141 271.2 2.5 267 11.1
2004-06-25 08:06:46 51°16.647 2°57.134 271.4 2.3 263 11
2004-06-25 08:06:52 51°16.647 2°57.128 272.4 2.4 272 11
2004-06-25 08:06:57 51°16.647 2°57.123 272.3 2.5 265 11
2004-06-25 08:07:02 51°16.647 2°57.117 273 2.6 276 11.1
2004-06-25 08:07:07 51°16.647 2°57.111 274.6 2.5 273 11
2004-06-25 08:07:12 51°16.647 2°57.106 274.6 2.5 271 11
2004-06-25 08:07:17 51°16.648 2°57.1 275.7 2.5 277 11
2004-06-25 08:07:20 51°16.648 2°57.096 276.7 2.6 276 10.9
2004-06-25 08:07:26 51°16.649 2°57.089 277.7 2.7 278 10.8
2004-06-25 08:07:32 51°16.649 2°57.082 278.6 2.7 280 10.9
2004-06-25 08:07:36 51°16.649 2°57.077 278.3 2.8 272 11
2004-06-25 08:07:42 51°16.651 2°57.07 279.3 2.9 285 10.8
2004-06-25 08:07:47 51°16.651 2°57.064 279.5 2.9 274 11
2004-06-25 08:07:52 51°16.652 2°57.057 279.9 2.7 284 10.9
2004-06-25 08:07:56 51°16.652 2°57.053 280.2 2.7 277 11
2004-06-25 08:08:01 51°16.653 2°57.046 280.3 2.8 282 10.9
2004-06-25 08:08:07 51°16.653 2°57.039 280.1 2.8 273 11
2004-06-25 08:08:12 51°16.653 2°57.033 279.5 2.9 271 11.2
2004-06-25 08:08:16 51°16.654 2°57.028 279.2 2.8 279 10.9
2004-06-25 08:08:22 51°16.654 2°57.02 279.6 2.8 277 10.8
2004-06-25 08:08:26 51°16.655 2°57.015 278.4 2.9 278 10.8
2004-06-25 08:08:32 51°16.656 2°57.008 278.7 2.9 271 11
2004-06-25 08:08:37 51°16.655 2°57.002 277.7 2.8 266 10.9
2004-06-25 08:08:42 51°16.656 2°56.996 277.5 2.8 284 10.8
2004-06-25 08:08:47 51°16.656 2°56.989 276.6 2.8 269 11.1
2004-06-25 08:08:52 51°16.656 2°56.983 275.3 2.9 277 11
2004-06-25 08:08:57 51°16.657 2°56.977 275.3 2.9 275 11.2
2004-06-25 08:09:01 51°16.657 2°56.972 274.3 3 273 11.2
2004-06-25 08:09:07 51°16.657 2°56.964 273.7 2.8 273 11.1
2004-06-25 08:09:10 51°16.657 2°56.961 273.9 2.5 271 11
2004-06-25 08:09:16 51°16.656 2°56.954 272.7 2.5 265 10.8
2004-06-25 08:09:21 51°16.656 2°56.949 271.2 2.4 265 10.8
2004-06-25 08:09:27 51°16.656 2°56.943 269.4 2.3 267 10.8
2004-06-25 08:09:32 51°16.655 2°56.937 267.8 2.3 256 10.9
2004-06-25 08:09:36 51°16.655 2°56.933 267.1 2.3 270 10.8
2004-06-25 08:09:42 51°16.654 2°56.927 266.2 2.5 253 10.8
2004-06-25 08:09:47 51°16.654 2°56.922 264.8 2.3 260 10.9
2004-06-25 08:09:52 51°16.653 2°56.917 263.5 2.3 267 10.9
2004-06-25 08:09:57 51°16.653 2°56.912 263.2 2.4 262 10.8
2004-06-25 08:10:00 51°16.652 2°56.909 262.7 2.3 256 10.8
2004-06-25 08:10:07 51°16.651 2°56.901 262.7 2.4 260 10.8
2004-06-25 08:10:12 51°16.65 2°56.896 264 2.5 262 11